Tequesta, Florida
Current Conditions -  °F | °C
As of 5:55 AM on Wednesday 22 Oct 2014 (Local Time) from KSUA Reporting Station
Clear Clear  
Wind Chill: 66°   Ceiling: Unl
Heat Index: 66°   Visibility: 10mi
Dew Point: 64°   Wind: 0mph
Humidity: 94%   Direction: NA
Pressure: 29.94"   Gusts: NA
Location:  26.9832°N, 80.1°W
Report Text: KSUA 220955Z AUTO 00000KT 10SM CLR 19/18 A2994 RMK AO2
Loading
Personal Weather Stations






























Interactive Weather Map
Tropical Storm Tracking
New forecast layout! Learn more

10-Day Weather Forecast

Advertisements
Track Severe Weather on mobile